Time;durP1;ratioP1;P1;durP2;ratioP2;P2;SDS_P1;SDS_P2;PMS_P1;PMS_P2;Temp;Humidity;BMP_temperature;BMP_pressure;BME280_temperature;BME280_humidity;BME280_pressure;Samples;Min_cycle;Max_cycle;Signal;HPM_P1;HPM_P2
2023/01/07 00:00:13;;;;;;;0.93;0.50;;;;;16.40;100601.00;;;;2077708;28;20271;-56
2023/01/07 00:01:36;;;;;;;0.80;0.63;;;;;16.40;100599.00;;;;2077756;28;20205;-55
2023/01/07 00:02:37;;;;;;;0.80;0.50;;;;;16.40;100603.00;;;;2076311;28;20551;-54
2023/01/07 00:03:38;;;;;;;0.80;0.57;;;;;16.40;100598.00;;;;2077358;28;20247;-54
2023/01/07 00:04:39;;;;;;;0.80;0.65;;;;;16.40;100601.00;;;;2077109;28;20224;-54
2023/01/07 00:05:39;;;;;;;0.60;0.40;;;;;16.40;100598.00;;;;2077997;28;20213;-54
2023/01/07 00:06:40;;;;;;;1.10;0.57;;;;;16.40;100599.00;;;;2078135;28;20669;-54
2023/01/07 00:07:40;;;;;;;0.90;0.50;;;;;16.40;100592.00;;;;2077878;28;20220;-55
2023/01/07 00:08:43;;;;;;;0.90;0.50;;;;;16.40;100596.00;;;;2077712;28;20239;-54
2023/01/07 00:09:43;;;;;;;0.85;0.57;;;;;16.40;100597.00;;;;2077987;28;20635;-54
2023/01/07 00:10:43;;;;;;;0.80;0.60;;;;;16.40;100586.00;;;;2076840;28;20874;-56
2023/01/07 00:11:44;;;;;;;0.60;0.50;;;;;16.40;100589.00;;;;2077625;28;20217;-58
2023/01/07 00:12:44;;;;;;;0.83;0.50;;;;;16.40;100601.00;;;;2077015;28;20706;-54
2023/01/07 00:13:45;;;;;;;0.90;0.50;;;;;16.40;100597.00;;;;2070627;28;20245;-54
2023/01/07 00:14:45;;;;;;;0.70;0.50;;;;;16.40;100581.00;;;;2078159;28;20223;-55
2023/01/07 00:15:46;;;;;;;0.60;0.50;;;;;16.40;100595.00;;;;2077825;28;20844;-55
2023/01/07 00:16:46;;;;;;;0.77;0.50;;;;;16.50;100595.00;;;;2077753;28;20742;-54
2023/01/07 00:17:46;;;;;;;0.90;0.60;;;;;16.40;100587.00;;;;2077777;28;20760;-54
2023/01/07 00:18:47;;;;;;;0.80;0.57;;;;;16.40;100590.00;;;;2078005;28;20582;-54
2023/01/07 00:19:47;;;;;;;0.70;0.60;;;;;16.40;100592.00;;;;2078052;28;20583;-54
2023/01/07 00:20:47;;;;;;;0.80;0.60;;;;;16.40;100595.00;;;;2077605;28;20213;-54
2023/01/07 00:21:48;;;;;;;0.83;0.60;;;;;16.40;100594.00;;;;2077126;28;20225;-54
2023/01/07 00:22:49;;;;;;;0.83;0.60;;;;;16.50;100590.00;;;;2077684;28;20217;-54
2023/01/07 00:24:01;;;;;;;0.80;0.40;;;;;16.40;100556.00;;;;2077876;28;20741;-54
2023/01/07 00:25:02;;;;;;;0.70;0.40;;;;;16.40;100587.00;;;;2077967;28;20220;-54
2023/01/07 00:26:12;;;;;;;0.80;0.50;;;;;16.40;100592.00;;;;2077865;28;20740;-54
2023/01/07 00:27:12;;;;;;;0.80;0.70;;;;;16.40;100590.00;;;;2077471;28;20456;-54
2023/01/07 00:28:13;;;;;;;0.60;0.40;;;;;16.40;100586.00;;;;2077526;28;20575;-54
2023/01/07 00:29:13;;;;;;;0.60;0.50;;;;;16.40;100588.00;;;;2077472;28;20682;-54
2023/01/07 00:30:14;;;;;;;1.00;0.60;;;;;16.40;100589.00;;;;2077752;28;20721;-54
2023/01/07 00:31:16;;;;;;;1.10;0.80;;;;;16.40;100590.00;;;;2076792;28;20214;-54
2023/01/07 00:32:16;;;;;;;0.82;0.60;;;;;16.50;100586.00;;;;2076201;28;20224;-53
2023/01/07 00:33:17;;;;;;;0.73;0.50;;;;;16.40;100586.00;;;;2077787;28;20213;-54
2023/01/07 00:34:22;;;;;;;0.70;0.40;;;;;16.40;100591.00;;;;2073102;28;20240;-55
2023/01/07 00:35:22;;;;;;;0.90;0.75;;;;;16.40;100576.00;;;;2077964;28;20226;-54
2023/01/07 00:36:24;;;;;;;0.80;0.60;;;;;16.40;100581.00;;;;2077851;28;20305;-53
2023/01/07 00:38:44;;;;;;;0.70;0.50;;;;;16.40;100581.00;;;;2076566;28;20213;-53
2023/01/07 00:39:44;;;;;;;0.80;0.60;;;;;16.40;100577.00;;;;2078501;28;20678;-53
2023/01/07 00:40:45;;;;;;;0.90;0.50;;;;;16.40;100579.00;;;;2078460;28;20210;-53
2023/01/07 00:43:05;;;;;;;0.93;0.50;;;;;16.40;100578.00;;;;2078997;28;20225;-53
2023/01/07 00:44:06;;;;;;;1.00;0.60;;;;;16.40;100576.00;;;;2078058;28;20216;-53
2023/01/07 00:45:07;;;;;;;0.70;0.50;;;;;16.40;100575.00;;;;2076595;28;20213;-53
2023/01/07 00:46:07;;;;;;;0.70;0.50;;;;;16.40;100577.00;;;;2077802;28;20563;-54
2023/01/07 00:47:08;;;;;;;0.77;0.63;;;;;16.40;100569.00;;;;2070026;28;20221;-53
2023/01/07 00:48:08;;;;;;;0.63;0.50;;;;;16.40;100574.00;;;;2070439;28;20715;-53
2023/01/07 00:49:08;;;;;;;0.80;0.50;;;;;16.40;100576.00;;;;2072134;28;20586;-53
2023/01/07 00:50:09;;;;;;;0.67;0.47;;;;;16.40;100578.00;;;;2070667;28;20221;-53
2023/01/07 00:51:13;;;;;;;0.70;0.50;;;;;16.40;100576.00;;;;2071306;28;20246;-53
2023/01/07 00:52:13;;;;;;;0.73;0.55;;;;;16.40;100572.00;;;;2068325;28;20586;-53
2023/01/07 00:53:14;;;;;;;1.17;0.70;;;;;16.40;100570.00;;;;2067625;28;20214;-53
2023/01/07 00:54:15;;;;;;;0.70;0.60;;;;;16.40;100570.00;;;;2070530;28;20748;-53
2023/01/07 00:55:15;;;;;;;0.80;0.53;;;;;16.40;100566.00;;;;2071407;28;20213;-53
2023/01/07 00:56:17;;;;;;;0.90;0.57;;;;;16.40;100568.00;;;;2071564;28;20449;-53
2023/01/07 00:57:18;;;;;;;0.70;0.55;;;;;16.40;100568.00;;;;2071551;28;20214;-53
2023/01/07 00:58:22;;;;;;;0.63;0.47;;;;;16.30;100571.00;;;;2075375;28;20229;-53
2023/01/07 00:59:23;;;;;;;0.77;0.60;;;;;16.40;100564.00;;;;2078588;28;20285;-54
2023/01/07 01:00:24;;;;;;;0.70;0.50;;;;;16.40;100560.00;;;;2066419;28;20773;-54
2023/01/07 01:01:24;;;;;;;0.80;0.50;;;;;16.40;100566.00;;;;2070672;28;20246;-54
2023/01/07 01:02:24;;;;;;;0.73;0.53;;;;;16.40;100567.00;;;;2069873;28;20250;-54
2023/01/07 01:03:25;;;;;;;0.80;0.60;;;;;16.40;100560.00;;;;2071485;28;20245;-54
2023/01/07 01:04:25;;;;;;;0.70;0.50;;;;;16.40;100559.00;;;;2071394;28;20237;-54
2023/01/07 01:05:26;;;;;;;0.80;0.50;;;;;16.40;100563.00;;;;2071334;28;20210;-54
2023/01/07 01:06:26;;;;;;;0.70;0.50;;;;;16.40;100553.00;;;;2075122;28;20213;-53
2023/01/07 01:07:26;;;;;;;0.97;0.67;;;;;16.40;100555.00;;;;2078899;28;20205;-53
2023/01/07 01:08:27;;;;;;;0.90;0.70;;;;;16.40;100550.00;;;;2078664;28;20241;-53
2023/01/07 01:09:27;;;;;;;0.63;0.50;;;;;16.40;100550.00;;;;2079230;28;20229;-53
2023/01/07 01:10:27;;;;;;;0.70;0.40;;;;;16.40;100542.00;;;;2072720;28;20206;-54
2023/01/07 01:11:28;;;;;;;0.60;0.40;;;;;16.40;100546.00;;;;2078753;28;20288;-54
2023/01/07 01:12:28;;;;;;;0.60;0.50;;;;;16.40;100541.00;;;;2077897;28;20221;-53
2023/01/07 01:13:28;;;;;;;0.83;0.63;;;;;16.40;100547.00;;;;2079352;28;20579;-54
2023/01/07 01:14:29;;;;;;;0.80;0.50;;;;;16.40;100542.00;;;;2078980;28;20245;-54
2023/01/07 01:15:29;;;;;;;0.97;0.73;;;;;16.40;100544.00;;;;2078058;28;20217;-53
2023/01/07 01:16:29;;;;;;;0.80;0.60;;;;;16.40;100542.00;;;;2078450;28;20300;-53
2023/01/07 01:17:30;;;;;;;0.77;0.50;;;;;16.40;100539.00;;;;2078746;28;20229;-54
2023/01/07 01:18:30;;;;;;;0.70;0.50;;;;;16.40;100548.00;;;;2078874;28;20217;-53
2023/01/07 01:19:30;;;;;;;0.70;0.50;;;;;16.40;100541.00;;;;2078404;28;20416;-53
2023/01/07 01:20:31;;;;;;;1.07;0.60;;;;;16.40;100534.00;;;;2078355;28;20236;-54
2023/01/07 01:21:31;;;;;;;0.80;0.67;;;;;16.40;100540.00;;;;2069351;28;20288;-54
2023/01/07 01:22:31;;;;;;;1.03;0.60;;;;;16.40;100538.00;;;;2068141;28;20242;-54
2023/01/07 01:23:32;;;;;;;0.70;0.60;;;;;16.40;100546.00;;;;2076771;28;20296;-53
2023/01/07 01:24:32;;;;;;;0.60;0.53;;;;;16.40;100541.00;;;;2078078;28;20264;-53
2023/01/07 01:25:32;;;;;;;0.73;0.47;;;;;16.40;100533.00;;;;2078831;28;20398;-52
2023/01/07 01:26:33;;;;;;;1.10;0.60;;;;;16.40;100541.00;;;;2078826;28;20288;-53
2023/01/07 01:27:33;;;;;;;0.80;0.60;;;;;16.40;100541.00;;;;2078692;28;20214;-54
2023/01/07 01:28:33;;;;;;;0.80;0.53;;;;;16.40;100541.00;;;;2078997;28;20256;-53
2023/01/07 01:29:34;;;;;;;1.00;0.70;;;;;16.40;100544.00;;;;2078603;28;20222;-53
2023/01/07 01:30:34;;;;;;;1.20;0.73;;;;;16.40;100541.00;;;;2078977;28;20218;-53
2023/01/07 01:31:34;;;;;;;0.80;0.50;;;;;16.40;100533.00;;;;2078598;28;20251;-53
2023/01/07 01:32:35;;;;;;;0.93;0.60;;;;;16.40;100537.00;;;;2077688;28;20252;-53
2023/01/07 01:33:35;;;;;;;0.77;0.47;;;;;16.40;100543.00;;;;2078583;28;20198;-54
2023/01/07 01:34:35;;;;;;;0.67;0.47;;;;;16.40;100539.00;;;;2078613;28;20216;-53
2023/01/07 01:35:39;;;;;;;0.80;0.60;;;;;16.50;100547.00;;;;2078564;28;20279;-54
2023/01/07 01:36:40;;;;;;;0.70;0.50;;;;;16.40;100538.00;;;;2079002;28;20245;-54
2023/01/07 01:37:40;;;;;;;0.70;0.40;;;;;16.40;100547.00;;;;2078097;28;20244;-53
2023/01/07 01:38:41;;;;;;;0.90;0.60;;;;;16.40;100544.00;;;;2079099;28;20226;-54
2023/01/07 01:39:42;;;;;;;0.70;0.60;;;;;16.40;100555.00;;;;2076426;28;20214;-53
2023/01/07 01:40:42;;;;;;;0.70;0.50;;;;;16.40;100547.00;;;;2078734;28;20606;-53
2023/01/07 01:41:42;;;;;;;0.80;0.50;;;;;16.40;100546.00;;;;2078719;28;20262;-54
2023/01/07 01:42:43;;;;;;;0.80;0.60;;;;;16.40;100547.00;;;;2078263;28;20214;-53
2023/01/07 01:43:43;;;;;;;0.80;0.50;;;;;16.40;100546.00;;;;2078551;28;20214;-53
2023/01/07 01:44:51;;;;;;;0.70;0.50;;;;;16.40;100544.00;;;;2079156;28;20220;-53
2023/01/07 01:45:51;;;;;;;0.88;0.60;;;;;16.50;100549.00;;;;2077727;28;20222;-53
2023/01/07 01:46:52;;;;;;;0.90;0.80;;;;;16.40;100541.00;;;;2079049;28;20210;-54
2023/01/07 01:47:58;;;;;;;0.70;0.50;;;;;16.40;100529.00;;;;2078424;28;20483;-54
2023/01/07 01:49:04;;;;;;;1.35;0.60;;;;;16.50;100541.00;;;;2070248;28;20214;-53
2023/01/07 01:50:24;;;;;;;1.08;0.50;;;;;16.30;100538.00;;;;2061730;28;20284;-54
2023/01/07 01:51:25;;;;;;;0.80;0.50;;;;;16.40;100548.00;;;;2067145;28;20603;-54
2023/01/07 01:52:32;;;;;;;0.70;0.50;;;;;16.40;100540.00;;;;2060831;28;20226;-54
2023/01/07 01:53:33;;;;;;;0.80;0.50;;;;;16.40;100545.00;;;;2058472;28;20856;-54
2023/01/07 01:54:33;;;;;;;0.70;0.50;;;;;16.40;100538.00;;;;2070217;28;20214;-54
2023/01/07 01:55:39;;;;;;;0.70;0.50;;;;;16.50;100544.00;;;;2070544;28;20214;-54
2023/01/07 01:56:41;;;;;;;0.82;0.60;;;;;16.40;100544.00;;;;2069870;28;20253;-53
2023/01/07 01:57:41;;;;;;;1.00;0.50;;;;;16.40;100545.00;;;;2070110;28;20222;-53
2023/01/07 01:58:44;;;;;;;0.90;0.60;;;;;16.40;100539.00;;;;2069857;28;20827;-53
2023/01/07 01:59:45;;;;;;;0.75;0.50;;;;;16.50;100541.00;;;;2053964;28;20308;-53
2023/01/07 02:00:45;;;;;;;0.67;0.40;;;;;16.50;100538.00;;;;2062155;28;20226;-53
2023/01/07 02:01:45;;;;;;;0.70;0.43;;;;;16.40;100544.00;;;;2070057;28;20210;-54
2023/01/07 02:02:56;;;;;;;0.60;0.40;;;;;16.40;100535.00;;;;2069153;28;20741;-53
2023/01/07 02:03:56;;;;;;;0.88;0.50;;;;;16.40;100542.00;;;;2070150;28;20264;-54
2023/01/07 02:04:57;;;;;;;0.73;0.53;;;;;16.40;100534.00;;;;2062020;28;20219;-54
2023/01/07 02:05:57;;;;;;;0.67;0.40;;;;;16.40;100535.00;;;;2060985;28;20238;-54
2023/01/07 02:07:02;;;;;;;0.80;0.50;;;;;16.40;100525.00;;;;2069668;28;20257;-53
2023/01/07 02:08:03;;;;;;;0.75;0.50;;;;;16.40;100530.00;;;;2062300;28;20243;-53
2023/01/07 02:09:03;;;;;;;0.70;0.50;;;;;16.40;100534.00;;;;2069889;28;20265;-53
2023/01/07 02:10:19;;;;;;;0.90;0.50;;;;;16.40;100527.00;;;;2078994;28;20206;-53
2023/01/07 02:11:41;;;;;;;0.60;0.40;;;;;16.40;100528.00;;;;2072553;28;20965;-53
2023/01/07 02:13:12;;;;;;;0.85;0.50;;;;;16.40;100525.00;;;;2072394;28;20214;-54
2023/01/07 02:14:20;;;;;;;1.00;0.50;;;;;16.40;100526.00;;;;2073592;28;20206;-53
2023/01/07 02:15:29;;;;;;;0.80;0.50;;;;;16.40;100531.00;;;;2070089;28;20222;-53
2023/01/07 02:16:42;;;;;;;0.85;0.52;;;;;16.40;100527.00;;;;2070075;28;20218;-54
2023/01/07 02:18:09;;;;;;;0.77;0.57;;;;;16.40;100529.00;;;;2061638;28;20215;-54
2023/01/07 02:19:25;;;;;;;0.80;0.57;;;;;16.40;100524.00;;;;2069519;28;20210;-53
2023/01/07 02:20:26;;;;;;;0.70;0.50;;;;;16.40;100528.00;;;;2069903;28;20304;-53
2023/01/07 02:21:49;;;;;;;0.70;0.50;;;;;16.40;100523.00;;;;2069804;28;20218;-54
2023/01/07 02:23:16;;;;;;;0.60;0.40;;;;;16.40;100521.00;;;;2072036;28;20417;-53
2023/01/07 02:24:43;;;;;;;0.73;0.50;;;;;16.40;100523.00;;;;2075991;28;20700;-54
2023/01/07 02:25:49;;;;;;;0.80;0.50;;;;;16.40;100522.00;;;;2075784;28;20217;-55
2023/01/07 02:26:50;;;;;;;0.70;0.57;;;;;16.40;100525.00;;;;2077999;28;20532;-54
2023/01/07 02:28:00;;;;;;;0.70;0.47;;;;;16.40;100530.00;;;;2078230;28;20217;-54
2023/01/07 02:29:25;;;;;;;0.80;0.40;;;;;16.40;100518.00;;;;2078307;28;20221;-53
2023/01/07 02:30:30;;;;;;;0.80;0.50;;;;;16.40;100519.00;;;;2072969;28;20892;-54
2023/01/07 02:31:43;;;;;;;0.73;0.47;;;;;16.40;100472.00;;;;2074370;28;20217;-54
2023/01/07 02:32:52;;;;;;;0.70;0.50;;;;;16.40;100524.00;;;;2077753;28;20233;-55
2023/01/07 02:33:59;;;;;;;0.75;0.60;;;;;16.40;100525.00;;;;2077787;28;20201;-54
2023/01/07 02:35:22;;;;;;;0.70;0.40;;;;;16.40;100517.00;;;;2077799;28;20786;-54
2023/01/07 02:36:40;;;;;;;0.70;0.50;;;;;16.40;100519.00;;;;2075676;28;20275;-54
2023/01/07 02:37:46;;;;;;;1.10;0.50;;;;;16.40;100521.00;;;;2077677;28;20232;-54
2023/01/07 02:39:14;;;;;;;0.77;0.50;;;;;16.40;100522.00;;;;2078575;28;20213;-54
2023/01/07 02:40:49;;;;;;;0.80;0.50;;;;;16.40;100519.00;;;;2077696;28;20651;-54
2023/01/07 02:41:58;;;;;;;0.73;0.50;;;;;16.40;100518.00;;;;2072697;28;20206;-53
2023/01/07 02:43:06;;;;;;;0.70;0.50;;;;;16.40;100508.00;;;;2077902;28;20724;-54
2023/01/07 02:44:13;;;;;;;0.65;0.45;;;;;16.40;100517.00;;;;2078324;28;20209;-53
2023/01/07 02:45:20;;;;;;;1.00;0.63;;;;;16.40;100525.00;;;;2069618;28;20206;-55
2023/01/07 02:46:32;;;;;;;0.80;0.50;;;;;16.40;100515.00;;;;2063343;28;20210;-54
2023/01/07 02:47:59;;;;;;;0.60;0.40;;;;;16.40;100494.00;;;;2056080;28;20207;-53
2023/01/07 02:48:59;;;;;;;0.85;0.60;;;;;16.40;100520.00;;;;2066879;28;20225;-53
2023/01/07 02:50:00;;;;;;;0.73;0.50;;;;;16.40;100518.00;;;;2069787;28;20806;-53
2023/01/07 02:51:00;;;;;;;0.73;0.50;;;;;16.40;100523.00;;;;2069735;28;20460;-53
2023/01/07 02:52:14;;;;;;;0.90;0.70;;;;;16.40;100518.00;;;;2076319;28;20217;-54
2023/01/07 02:53:16;;;;;;;0.80;0.50;;;;;16.40;100515.00;;;;2076434;28;20292;-53
2023/01/07 02:54:20;;;;;;;0.70;0.60;;;;;16.40;100518.00;;;;2064746;28;20591;-54
2023/01/07 02:55:26;;;;;;;0.73;0.57;;;;;16.40;100512.00;;;;2070044;28;20226;-54
2023/01/07 02:56:43;;;;;;;0.82;0.50;;;;;16.40;100509.00;;;;2055465;28;20204;-54
2023/01/07 02:58:03;;;;;;;0.95;0.45;;;;;16.40;100510.00;;;;2059917;28;20223;-55
2023/01/07 02:59:29;;;;;;;0.60;0.50;;;;;16.40;100503.00;;;;2072276;28;20268;-54
2023/01/07 03:00:53;;;;;;;0.75;0.47;;;;;16.40;100503.00;;;;2068040;28;20214;-54
2023/01/07 03:02:09;;;;;;;0.80;0.60;;;;;16.40;100504.00;;;;2072323;28;20730;-54
2023/01/07 03:03:28;;;;;;;0.70;0.50;;;;;16.40;100492.00;;;;2077715;28;20217;-54
2023/01/07 03:04:45;;;;;;;0.70;0.40;;;;;16.40;100499.00;;;;2077806;28;20644;-54
2023/01/07 03:06:21;;;;;;;0.77;0.50;;;;;16.40;100494.00;;;;2078134;28;20303;-54
2023/01/07 03:07:40;;;;;;;0.60;0.50;;;;;16.40;100496.00;;;;2078045;28;20233;-53
2023/01/07 03:08:57;;;;;;;0.60;0.40;;;;;16.40;100496.00;;;;2077651;28;20264;-54
2023/01/07 03:10:21;;;;;;;0.80;0.50;;;;;16.40;100490.00;;;;2071832;28;20571;-53
2023/01/07 03:11:21;;;;;;;0.60;0.40;;;;;16.40;100489.00;;;;2069378;28;20325;-54
2023/01/07 03:12:25;;;;;;;1.00;0.70;;;;;16.40;100496.00;;;;2053082;28;20340;-54
2023/01/07 03:13:42;;;;;;;0.68;0.40;;;;;16.40;100484.00;;;;2062302;28;20294;-54
2023/01/07 03:14:48;;;;;;;0.90;0.63;;;;;16.40;100488.00;;;;2071743;28;20213;-54
2023/01/07 03:16:00;;;;;;;0.90;0.50;;;;;16.40;100480.00;;;;2069253;28;20297;-54
2023/01/07 03:17:01;;;;;;;0.70;0.50;;;;;16.40;100477.00;;;;2071421;28;20221;-54
2023/01/07 03:18:04;;;;;;;0.80;0.50;;;;;16.40;100472.00;;;;2069657;28;20249;-53
2023/01/07 03:19:17;;;;;;;0.70;0.40;;;;;16.40;100472.00;;;;2054125;28;20215;-54
2023/01/07 03:20:17;;;;;;;1.05;0.60;;;;;16.40;100470.00;;;;2064368;28;20207;-55
2023/01/07 03:21:17;;;;;;;1.00;0.60;;;;;16.40;100478.00;;;;2069479;28;20217;-54
2023/01/07 03:22:18;;;;;;;0.80;0.50;;;;;16.40;100473.00;;;;2067997;28;20214;-54
2023/01/07 03:23:20;;;;;;;1.20;0.60;;;;;16.40;100475.00;;;;2069461;28;20245;-54
2023/01/07 03:24:20;;;;;;;0.60;0.40;;;;;16.40;100478.00;;;;2061617;28;20698;-54
2023/01/07 03:25:21;;;;;;;0.70;0.40;;;;;16.40;100470.00;;;;2046556;28;20255;-54
2023/01/07 03:26:28;;;;;;;0.90;0.50;;;;;16.40;100472.00;;;;2068785;28;20210;-54
2023/01/07 03:27:30;;;;;;;0.77;0.50;;;;;16.40;100468.00;;;;2075574;28;20240;-53
2023/01/07 03:28:32;;;;;;;0.82;0.45;;;;;16.40;100469.00;;;;2077806;28;20407;-53
2023/01/07 03:29:34;;;;;;;0.80;0.40;;;;;16.40;100464.00;;;;2077525;28;20313;-54
2023/01/07 03:30:36;;;;;;;1.10;0.93;;;;;16.40;100471.00;;;;2069908;28;20206;-54
2023/01/07 03:31:36;;;;;;;0.70;0.50;;;;;16.40;100467.00;;;;2061414;28;20661;-54
2023/01/07 03:33:00;;;;;;;0.80;0.53;;;;;16.40;100471.00;;;;2060297;28;20277;-54
2023/01/07 03:34:09;;;;;;;0.90;0.60;;;;;16.40;100470.00;;;;2069637;28;20248;-54
2023/01/07 03:35:09;;;;;;;0.90;0.52;;;;;16.20;100462.00;;;;2069073;28;20794;-54
2023/01/07 03:36:10;;;;;;;0.60;0.40;;;;;16.40;100470.00;;;;2070423;28;20222;-54
2023/01/07 03:37:15;;;;;;;0.77;0.60;;;;;16.40;100458.00;;;;2068934;28;20710;-54
2023/01/07 03:38:16;;;;;;;0.70;0.50;;;;;16.40;100460.00;;;;2062018;28;20586;-53
2023/01/07 03:39:16;;;;;;;0.70;0.50;;;;;16.40;100459.00;;;;2061571;28;20214;-53
2023/01/07 03:40:16;;;;;;;0.70;0.50;;;;;16.40;100466.00;;;;2069195;28;20215;-54
2023/01/07 03:42:39;;;;;;;0.85;0.40;;;;;16.40;100467.00;;;;2075323;28;20356;-54
2023/01/07 03:43:39;;;;;;;0.68;0.47;;;;;16.40;100464.00;;;;2078698;28;20221;-54
2023/01/07 03:44:40;;;;;;;1.00;0.50;;;;;16.40;100462.00;;;;2067992;28;20386;-54
2023/01/07 03:45:40;;;;;;;1.07;0.70;;;;;16.40;100459.00;;;;2085826;28;20216;-54
2023/01/07 03:46:40;;;;;;;0.90;0.60;;;;;16.40;100457.00;;;;2077604;28;20225;-53
2023/01/07 03:47:44;;;;;;;0.63;0.40;;;;;16.40;100462.00;;;;2077454;28;20667;-54
2023/01/07 03:48:44;;;;;;;0.70;0.40;;;;;16.40;100454.00;;;;2078119;28;20263;-53
2023/01/07 03:49:45;;;;;;;0.80;0.60;;;;;16.40;100448.00;;;;2078235;28;20795;-53
2023/01/07 03:50:45;;;;;;;0.80;0.50;;;;;16.40;100457.00;;;;2078393;28;20625;-53
2023/01/07 03:51:48;;;;;;;0.87;0.50;;;;;16.40;100457.00;;;;2077863;28;20217;-53
2023/01/07 03:52:49;;;;;;;0.90;0.63;;;;;16.40;100453.00;;;;2077792;28;20304;-53
2023/01/07 03:53:49;;;;;;;1.05;0.50;;;;;16.40;100460.00;;;;2077702;28;20241;-54
2023/01/07 03:54:50;;;;;;;1.00;0.60;;;;;16.40;100449.00;;;;2077905;28;20217;-54
2023/01/07 03:55:50;;;;;;;0.70;0.40;;;;;16.40;100468.00;;;;2078343;28;20228;-54
2023/01/07 03:56:50;;;;;;;0.67;0.40;;;;;16.40;100447.00;;;;2072793;28;20685;-54
2023/01/07 03:57:51;;;;;;;0.67;0.53;;;;;16.40;100447.00;;;;2076941;28;20696;-54
2023/01/07 03:58:51;;;;;;;0.80;0.50;;;;;16.40;100451.00;;;;2077139;28;20725;-54
2023/01/07 03:59:51;;;;;;;0.90;0.70;;;;;16.40;100451.00;;;;2077272;28;20745;-53
2023/01/07 04:00:53;;;;;;;0.80;0.60;;;;;16.40;100450.00;;;;2077015;28;20283;-54
2023/01/07 04:01:54;;;;;;;0.77;0.55;;;;;16.40;100450.00;;;;2074173;28;20217;-55
2023/01/07 04:02:54;;;;;;;0.80;0.40;;;;;16.40;100448.00;;;;2077118;28;20281;-55
2023/01/07 04:03:54;;;;;;;0.87;0.67;;;;;16.40;100451.00;;;;2077201;28;20213;-54
2023/01/07 04:04:55;;;;;;;0.70;0.50;;;;;16.40;100394.00;;;;2077456;28;20217;-55
2023/01/07 04:05:55;;;;;;;0.70;0.40;;;;;16.40;100447.00;;;;2078265;28;20222;-54
2023/01/07 04:06:55;;;;;;;0.70;0.50;;;;;16.40;100445.00;;;;2078154;28;20236;-55
2023/01/07 04:07:56;;;;;;;1.07;0.67;;;;;16.40;100446.00;;;;2078101;28;20212;-54
2023/01/07 04:08:56;;;;;;;0.70;0.50;;;;;16.40;100441.00;;;;2077644;28;20205;-54
2023/01/07 04:09:56;;;;;;;0.63;0.40;;;;;16.40;100438.00;;;;2077970;28;20225;-53
2023/01/07 04:10:57;;;;;;;0.60;0.40;;;;;16.40;100446.00;;;;2078028;28;20266;-54
2023/01/07 04:11:57;;;;;;;0.60;0.40;;;;;16.40;100438.00;;;;2076731;28;20206;-54
2023/01/07 04:12:57;;;;;;;0.70;0.40;;;;;16.40;100433.00;;;;2078162;28;20580;-54
2023/01/07 04:13:59;;;;;;;0.70;0.50;;;;;16.40;100433.00;;;;2078984;28;20701;-54
2023/01/07 04:14:59;;;;;;;0.70;0.50;;;;;16.40;100432.00;;;;2079681;28;20251;-54
2023/01/07 04:16:00;;;;;;;0.70;0.50;;;;;16.40;100426.00;;;;2078134;28;20213;-54
2023/01/07 04:17:00;;;;;;;0.70;0.40;;;;;16.40;100425.00;;;;2079994;28;20587;-54
2023/01/07 04:18:00;;;;;;;0.70;0.50;;;;;16.40;100424.00;;;;2079869;28;20530;-54
2023/01/07 04:19:01;;;;;;;0.70;0.50;;;;;16.40;100420.00;;;;2079537;28;20605;-54
2023/01/07 04:20:01;;;;;;;0.70;0.47;;;;;16.30;100425.00;;;;2079674;28;20609;-54
2023/01/07 04:21:02;;;;;;;0.70;0.50;;;;;16.40;100402.00;;;;2078924;28;20241;-54
2023/01/07 04:22:02;;;;;;;0.67;0.40;;;;;16.40;100425.00;;;;2077569;28;20237;-54
2023/01/07 04:23:02;;;;;;;0.60;0.40;;;;;16.40;100437.00;;;;2079583;28;20215;-54
2023/01/07 04:24:03;;;;;;;0.60;0.40;;;;;16.40;100412.00;;;;2079052;28;20214;-53
2023/01/07 04:25:03;;;;;;;0.90;0.50;;;;;16.40;100418.00;;;;2079615;28;20271;-54
2023/01/07 04:26:04;;;;;;;0.80;0.60;;;;;16.40;100421.00;;;;2079487;28;20202;-54
2023/01/07 04:27:04;;;;;;;0.80;0.50;;;;;16.40;100421.00;;;;2079969;28;20259;-54
2023/01/07 04:28:04;;;;;;;0.60;0.43;;;;;16.40;100425.00;;;;2079646;28;20214;-54
2023/01/07 04:29:05;;;;;;;0.60;0.40;;;;;16.40;100425.00;;;;2076022;28;20687;-54
2023/01/07 04:30:05;;;;;;;0.83;0.60;;;;;16.40;100417.00;;;;2079551;28;20251;-53
2023/01/07 04:31:06;;;;;;;0.73;0.50;;;;;16.40;100420.00;;;;2079585;28;20202;-54
2023/01/07 04:32:06;;;;;;;0.70;0.50;;;;;16.40;100415.00;;;;2078248;28;20212;-54
2023/01/07 04:33:07;;;;;;;0.80;0.50;;;;;16.40;100422.00;;;;2079773;28;20327;-54
2023/01/07 04:34:08;;;;;;;0.70;0.50;;;;;16.40;100422.00;;;;2079534;28;20207;-53
2023/01/07 04:35:08;;;;;;;0.70;0.40;;;;;16.40;100424.00;;;;2079334;28;20686;-54
2023/01/07 04:36:09;;;;;;;0.80;0.60;;;;;16.40;100423.00;;;;2079638;28;20210;-54
2023/01/07 04:37:09;;;;;;;0.83;0.50;;;;;16.40;100411.00;;;;2079418;28;20217;-54
2023/01/07 04:38:09;;;;;;;0.70;0.50;;;;;16.40;100408.00;;;;2079485;28;20590;-54
2023/01/07 04:39:11;;;;;;;0.60;0.40;;;;;16.40;100422.00;;;;2079751;28;20291;-54
2023/01/07 04:40:11;;;;;;;0.95;0.60;;;;;16.40;100411.00;;;;2074827;28;20232;-54
2023/01/07 04:41:12;;;;;;;0.90;0.57;;;;;16.40;100416.00;;;;2078704;28;20210;-54
2023/01/07 04:42:12;;;;;;;0.70;0.40;;;;;16.40;100408.00;;;;2078236;28;20214;-53
2023/01/07 04:43:12;;;;;;;0.77;0.50;;;;;16.40;100414.00;;;;2078663;28;20218;-54
2023/01/07 04:44:14;;;;;;;0.70;0.50;;;;;16.40;100408.00;;;;2079205;28;20210;-53
2023/01/07 04:45:14;;;;;;;0.60;0.40;;;;;16.40;100408.00;;;;2079747;28;20232;-53
2023/01/07 04:46:15;;;;;;;0.80;0.50;;;;;16.40;100410.00;;;;2079376;28;20217;-54
2023/01/07 04:47:15;;;;;;;0.60;0.40;;;;;16.40;100402.00;;;;2079731;28;20260;-54
2023/01/07 04:48:15;;;;;;;0.70;0.43;;;;;16.40;100411.00;;;;2079709;28;20202;-53
2023/01/07 04:49:16;;;;;;;0.60;0.40;;;;;16.40;100398.00;;;;2075191;28;20217;-53
2023/01/07 04:50:16;;;;;;;0.77;0.50;;;;;16.40;100401.00;;;;2078809;28;20213;-54
2023/01/07 04:51:19;;;;;;;0.97;0.40;;;;;16.40;100401.00;;;;2077607;28;20592;-54
2023/01/07 04:52:19;;;;;;;0.70;0.50;;;;;16.40;100400.00;;;;2077858;28;20205;-53
2023/01/07 04:53:19;;;;;;;0.70;0.50;;;;;16.40;100391.00;;;;2079656;28;20233;-54
2023/01/07 04:54:20;;;;;;;0.70;0.40;;;;;16.40;100399.00;;;;2079557;28;20308;-54
2023/01/07 04:55:20;;;;;;;0.90;0.40;;;;;16.40;100388.00;;;;2079484;28;20217;-54
2023/01/07 04:56:21;;;;;;;0.73;0.50;;;;;16.40;100393.00;;;;2079412;28;20698;-54
2023/01/07 04:57:21;;;;;;;0.70;0.50;;;;;16.40;100386.00;;;;2079293;28;20217;-54
2023/01/07 04:58:21;;;;;;;0.70;0.40;;;;;16.40;100382.00;;;;2079516;28;20283;-53
2023/01/07 04:59:22;;;;;;;0.80;0.50;;;;;16.40;100388.00;;;;2079404;28;20230;-54
2023/01/07 05:00:22;;;;;;;0.80;0.50;;;;;16.40;100388.00;;;;2079395;28;20226;-54
2023/01/07 05:01:23;;;;;;;0.70;0.50;;;;;16.40;100385.00;;;;2078092;28;20218;-54
2023/01/07 05:02:23;;;;;;;0.80;0.50;;;;;16.40;100382.00;;;;2077717;28;20221;-54
2023/01/07 05:03:24;;;;;;;0.80;0.50;;;;;16.40;100393.00;;;;2079046;28;20513;-54
2023/01/07 05:04:24;;;;;;;0.95;0.50;;;;;16.40;100386.00;;;;2079080;28;20218;-54
2023/01/07 05:05:25;;;;;;;0.60;0.40;;;;;16.40;100380.00;;;;2079115;28;20232;-54
2023/01/07 05:06:25;;;;;;;0.70;0.40;;;;;16.40;100378.00;;;;2079573;28;20218;-54
2023/01/07 05:07:25;;;;;;;0.70;0.60;;;;;16.40;100376.00;;;;2079050;28;20218;-54
2023/01/07 05:08:26;;;;;;;0.60;0.43;;;;;16.40;100376.00;;;;2079438;28;20217;-54
2023/01/07 05:09:26;;;;;;;1.00;0.50;;;;;16.40;100371.00;;;;2079172;28;20225;-54
2023/01/07 05:10:27;;;;;;;0.70;0.50;;;;;16.40;100377.00;;;;2079184;28;20695;-54
2023/01/07 05:11:27;;;;;;;0.70;0.50;;;;;16.40;100375.00;;;;2079350;28;20369;-53
2023/01/07 05:12:27;;;;;;;0.80;0.40;;;;;16.40;100331.00;;;;2077697;28;20239;-54
2023/01/07 05:13:30;;;;;;;0.80;0.50;;;;;16.40;100369.00;;;;2079484;28;20224;-53
2023/01/07 05:14:30;;;;;;;0.60;0.40;;;;;16.40;100368.00;;;;2079241;28;20213;-54
2023/01/07 05:15:31;;;;;;;0.70;0.50;;;;;16.40;100367.00;;;;2079137;28;20745;-53
2023/01/07 05:16:31;;;;;;;0.70;0.40;;;;;16.40;100367.00;;;;2079297;28;20660;-54
2023/01/07 05:17:32;;;;;;;0.60;0.40;;;;;16.40;100367.00;;;;2079192;28;20224;-54
2023/01/07 05:18:32;;;;;;;0.60;0.40;;;;;16.40;100365.00;;;;2079234;28;20694;-53